Time;durP1;ratioP1;P1;durP2;ratioP2;P2;SDS_P1;SDS_P2;PMS_P1;PMS_P2;Temp;Humidity;BMP_temperature;BMP_pressure;BME280_temperature;BME280_humidity;BME280_pressure;Samples;Min_cycle;Max_cycle;Signal;HPM_P1;HPM_P2
2022/07/28 00:02:15;;;;;;;5.75;2.35;;;11.50;99.90;;;;;;5007573;28;20049;-88
2022/07/28 00:04:41;;;;;;;6.07;2.45;;;11.40;99.90;;;;;;4996020;28;20041;-89
2022/07/28 00:07:07;;;;;;;5.95;2.40;;;11.40;99.90;;;;;;5006276;28;20087;-89
2022/07/28 00:09:32;;;;;;;6.28;2.63;;;11.40;99.90;;;;;;5010839;28;20046;-89
2022/07/28 00:11:58;;;;;;;5.85;2.85;;;11.40;99.90;;;;;;5010414;28;20171;-88
2022/07/28 00:14:24;;;;;;;6.88;2.88;;;11.40;99.90;;;;;;5029967;28;20053;-88
2022/07/28 00:16:49;;;;;;;8.55;2.75;;;11.40;99.90;;;;;;5024788;28;20072;-88
2022/07/28 00:19:16;;;;;;;6.45;2.45;;;11.40;99.90;;;;;;5011181;28;20097;-88
2022/07/28 00:21:41;;;;;;;6.03;2.67;;;11.40;99.90;;;;;;5008624;28;20033;-87
2022/07/28 00:24:07;;;;;;;6.07;2.65;;;11.40;99.90;;;;;;5006739;28;20133;-87
2022/07/28 00:26:33;;;;;;;7.03;2.85;;;11.30;99.90;;;;;;4994638;28;20541;-86
2022/07/28 00:28:58;;;;;;;5.63;2.50;;;11.30;99.90;;;;;;4993728;28;20045;-87
2022/07/28 00:31:24;;;;;;;5.38;2.70;;;11.30;99.90;;;;;;5024664;28;20056;-86
2022/07/28 00:33:49;;;;;;;7.88;3.00;;;11.20;99.90;;;;;;5023818;28;20049;-87
2022/07/28 00:36:15;;;;;;;5.88;2.60;;;11.20;99.90;;;;;;5024713;28;20367;-86
2022/07/28 00:38:41;;;;;;;6.32;3.03;;;11.20;99.90;;;;;;5008004;28;20087;-86
2022/07/28 00:41:12;;;;;;;6.55;2.90;;;11.20;99.90;;;;;;4989503;28;20068;-87
2022/07/28 00:43:38;;;;;;;5.78;2.78;;;11.20;99.90;;;;;;5004555;28;20404;-86
2022/07/28 00:46:04;;;;;;;7.03;2.70;;;11.20;99.90;;;;;;4984962;28;20054;-87
2022/07/28 00:48:30;;;;;;;7.45;2.90;;;11.20;99.90;;;;;;5010179;28;20068;-87
2022/07/28 00:50:56;;;;;;;6.90;2.70;;;11.20;99.90;;;;;;5004633;28;20430;-87
2022/07/28 00:53:22;;;;;;;6.10;2.60;;;11.20;99.90;;;;;;5026924;28;20049;-87
2022/07/28 00:55:48;;;;;;;6.78;2.53;;;11.10;99.90;;;;;;5007616;28;20041;-86
2022/07/28 00:58:13;;;;;;;6.43;2.58;;;11.10;99.90;;;;;;5009635;28;20048;-87
2022/07/28 01:00:39;;;;;;;5.85;2.58;;;11.10;99.90;;;;;;5006158;28;20275;-87
2022/07/28 01:03:05;;;;;;;6.93;2.78;;;11.00;99.90;;;;;;5007773;28;20045;-87
2022/07/28 01:05:41;;;;;;;6.20;2.50;;;11.00;99.90;;;;;;5005935;28;20098;-87
2022/07/28 01:08:20;;;;;;;6.70;2.60;;;11.10;99.90;;;;;;5025569;28;20098;-87
2022/07/28 01:11:00;;;;;;;5.55;2.45;;;11.10;99.90;;;;;;5010008;28;20038;-87
2022/07/28 01:13:48;;;;;;;5.88;2.30;;;11.10;99.90;;;;;;5010333;28;20045;-86
2022/07/28 01:16:14;;;;;;;7.53;2.50;;;11.10;99.90;;;;;;5025946;28;20052;-86
2022/07/28 01:19:28;;;;;;;7.50;2.83;;;11.10;99.90;;;;;;5009254;28;20048;-86
2022/07/28 01:21:55;;;;;;;5.65;2.10;;;11.10;99.90;;;;;;4943596;28;20084;-86
2022/07/28 01:24:53;;;;;;;5.30;2.20;;;11.10;99.90;;;;;;4946994;29;20244;-87
2022/07/28 01:27:45;;;;;;;5.38;2.33;;;11.10;99.90;;;;;;4932760;28;20099;-87
2022/07/28 01:30:23;;;;;;;4.68;2.22;;;11.00;99.90;;;;;;4946161;28;20051;-87
2022/07/28 01:33:17;;;;;;;6.38;2.30;;;11.00;99.90;;;;;;4965534;28;20552;-86
2022/07/28 01:35:48;;;;;;;5.95;2.40;;;11.00;99.90;;;;;;4949299;28;20093;-88
2022/07/28 01:38:15;;;;;;;5.45;2.08;;;11.00;99.90;;;;;;4933786;28;20059;-86
2022/07/28 01:40:44;;;;;;;6.30;2.45;;;10.90;99.90;;;;;;4962066;28;20317;-86
2022/07/28 01:43:14;;;;;;;5.22;2.25;;;10.90;99.90;;;;;;4930418;28;20066;-87
2022/07/28 01:45:42;;;;;;;5.05;1.85;;;10.90;99.90;;;;;;4960595;28;20051;-87
2022/07/28 01:48:10;;;;;;;5.53;2.13;;;10.80;99.90;;;;;;4947949;28;20057;-87
2022/07/28 01:50:36;;;;;;;5.05;2.10;;;10.80;99.90;;;;;;4965486;28;20113;-86
2022/07/28 01:53:02;;;;;;;6.50;2.33;;;10.80;99.90;;;;;;4945333;28;20086;-87
2022/07/28 01:55:29;;;;;;;7.35;2.28;;;10.70;99.90;;;;;;4948288;28;20051;-87
2022/07/28 01:57:56;;;;;;;5.22;2.30;;;10.80;99.90;;;;;;4987412;28;20061;-87
2022/07/28 02:00:24;;;;;;;6.03;2.13;;;10.70;99.90;;;;;;5023745;28;20041;-86
2022/07/28 02:02:52;;;;;;;7.22;2.35;;;10.70;99.90;;;;;;5024564;28;20048;-87
2022/07/28 02:05:20;;;;;;;5.20;2.17;;;10.70;99.90;;;;;;5007226;28;20116;-87
2022/07/28 02:07:48;;;;;;;7.05;2.58;;;10.70;99.90;;;;;;5025740;28;20045;-87
2022/07/28 02:10:16;;;;;;;6.40;2.55;;;10.70;99.90;;;;;;4991244;28;20045;-86
2022/07/28 02:12:44;;;;;;;5.22;2.35;;;10.70;99.90;;;;;;5024943;28;20124;-87
2022/07/28 02:15:12;;;;;;;5.78;2.38;;;10.60;99.90;;;;;;4990308;28;20041;-85
2022/07/28 02:17:41;;;;;;;6.55;2.33;;;10.70;99.90;;;;;;5026100;28;20068;-87
2022/07/28 02:20:09;;;;;;;6.90;2.40;;;10.70;99.90;;;;;;5000344;28;20064;-86
2022/07/28 02:22:37;;;;;;;6.97;2.60;;;10.60;99.90;;;;;;5008606;28;20053;-86
2022/07/28 02:25:03;;;;;;;5.80;2.88;;;10.60;99.90;;;;;;5006582;28;20065;-87
2022/07/28 02:27:49;;;;;;;7.45;2.50;;;10.60;99.90;;;;;;5024400;28;20103;-86
2022/07/28 02:30:21;;;;;;;5.68;2.65;;;10.50;99.90;;;;;;5004734;28;20051;-86
2022/07/28 02:32:53;;;;;;;5.75;2.45;;;10.50;99.90;;;;;;5007045;28;20053;-86
2022/07/28 02:35:31;;;;;;;6.22;2.47;;;10.50;99.90;;;;;;5023552;28;20052;-86
2022/07/28 02:38:00;;;;;;;5.45;2.45;;;10.40;99.90;;;;;;4987560;28;20615;-86
2022/07/28 02:40:33;;;;;;;7.03;2.90;;;10.40;99.90;;;;;;5007810;28;20398;-87
2022/07/28 02:43:00;;;;;;;5.07;2.40;;;10.40;99.90;;;;;;5001348;28;20398;-86
2022/07/28 02:45:28;;;;;;;5.75;2.50;;;10.30;99.90;;;;;;5001173;28;20052;-86
2022/07/28 02:48:00;;;;;;;6.15;2.50;;;10.30;99.90;;;;;;5002707;28;20063;-87
2022/07/28 02:50:27;;;;;;;5.47;2.42;;;10.30;99.90;;;;;;5019925;28;20052;-87
2022/07/28 02:52:58;;;;;;;5.45;2.60;;;10.20;99.90;;;;;;4988672;28;20441;-87
2022/07/28 02:55:24;;;;;;;6.50;2.70;;;10.20;99.90;;;;;;5003596;28;20076;-86
2022/07/28 02:57:51;;;;;;;4.97;2.50;;;10.20;99.90;;;;;;4984546;28;20049;-86
2022/07/28 03:00:17;;;;;;;5.80;2.50;;;10.20;99.90;;;;;;5003513;28;20045;-87
2022/07/28 03:02:45;;;;;;;7.05;2.65;;;10.20;99.90;;;;;;5022930;28;20822;-87
2022/07/28 03:05:13;;;;;;;5.40;2.50;;;10.10;99.90;;;;;;4989996;28;20247;-87
2022/07/28 03:07:40;;;;;;;6.03;2.55;;;10.20;99.90;;;;;;4989854;28;20425;-86
2022/07/28 03:10:08;;;;;;;4.88;2.60;;;10.10;99.90;;;;;;4988210;28;20065;-86
2022/07/28 03:12:34;;;;;;;5.53;2.58;;;10.10;99.90;;;;;;5023161;28;20237;-87
2022/07/28 03:14:59;;;;;;;5.22;2.60;;;10.10;99.90;;;;;;4989457;28;20490;-86
2022/07/28 03:17:25;;;;;;;5.45;2.40;;;10.10;99.90;;;;;;4987679;28;20040;-86
2022/07/28 03:19:50;;;;;;;4.22;2.08;;;10.10;99.90;;;;;;5022940;28;20041;-86
2022/07/28 03:22:16;;;;;;;5.15;2.22;;;10.00;99.90;;;;;;5023753;28;20064;-86
2022/07/28 03:24:45;;;;;;;5.45;2.30;;;9.90;99.90;;;;;;5023201;28;20061;-86
2022/07/28 03:27:18;;;;;;;4.47;2.40;;;9.90;99.90;;;;;;5014008;28;20049;-86
2022/07/28 03:29:49;;;;;;;5.40;2.35;;;9.80;99.90;;;;;;5016124;28;20049;-87
2022/07/28 03:32:19;;;;;;;4.18;2.20;;;9.70;99.90;;;;;;5014741;28;20450;-86
2022/07/28 03:34:45;;;;;;;5.30;2.28;;;9.70;99.90;;;;;;5028470;28;20446;-86
2022/07/28 03:37:13;;;;;;;5.07;2.28;;;9.70;99.90;;;;;;5010875;28;20461;-87
2022/07/28 03:39:45;;;;;;;5.10;2.60;;;9.60;99.90;;;;;;5046356;28;20576;-86
2022/07/28 03:42:12;;;;;;;5.63;2.45;;;9.70;99.90;;;;;;5042959;28;20076;-87
2022/07/28 03:44:39;;;;;;;4.93;2.55;;;9.70;99.90;;;;;;5016615;28;20390;-87
2022/07/28 03:47:05;;;;;;;6.07;2.33;;;9.70;99.90;;;;;;5026187;28;20623;-87
2022/07/28 03:49:31;;;;;;;4.00;2.30;;;9.70;99.90;;;;;;4999179;28;20052;-87
2022/07/28 03:51:57;;;;;;;4.90;2.17;;;9.60;99.90;;;;;;4991408;28;20397;-86
2022/07/28 03:54:22;;;;;;;4.70;2.35;;;9.60;99.90;;;;;;5045727;28;20051;-86
2022/07/28 03:56:48;;;;;;;4.70;2.10;;;9.60;99.90;;;;;;5016001;28;20115;-86
2022/07/28 03:59:14;;;;;;;5.95;2.60;;;9.60;99.90;;;;;;5016562;28;20892;-87
2022/07/28 04:01:40;;;;;;;5.13;2.55;;;9.60;99.90;;;;;;5047024;28;20111;-87
2022/07/28 04:04:05;;;;;;;4.50;2.60;;;9.60;99.90;;;;;;5001342;28;20128;-85
2022/07/28 04:06:31;;;;;;;3.80;2.10;;;9.60;99.90;;;;;;4983386;28;20069;-87
2022/07/28 04:08:56;;;;;;;5.22;2.60;;;9.60;99.90;;;;;;5021749;28;20042;-86
2022/07/28 04:11:22;;;;;;;5.55;2.58;;;9.60;99.90;;;;;;5010604;28;20033;-86
2022/07/28 04:13:48;;;;;;;6.10;2.70;;;9.70;99.90;;;;;;5028642;28;20045;-87
2022/07/28 04:16:13;;;;;;;6.22;2.78;;;9.70;99.90;;;;;;5009150;28;20120;-86
2022/07/28 04:18:39;;;;;;;5.05;2.40;;;9.70;99.90;;;;;;5011738;28;20056;-87
2022/07/28 04:21:05;;;;;;;5.20;2.47;;;9.70;99.90;;;;;;5040568;28;20486;-86
2022/07/28 04:23:31;;;;;;;4.78;2.50;;;9.80;99.90;;;;;;5013028;28;20056;-87
2022/07/28 04:25:56;;;;;;;5.07;2.60;;;9.80;99.90;;;;;;5028536;28;20050;-86
2022/07/28 04:28:23;;;;;;;5.05;2.70;;;9.80;99.90;;;;;;5009975;28;20128;-86
2022/07/28 04:30:48;;;;;;;5.30;2.20;;;9.90;99.90;;;;;;5028793;28;20045;-86
2022/07/28 04:33:14;;;;;;;6.03;2.75;;;9.90;99.90;;;;;;4990867;28;20057;-87
2022/07/28 04:35:40;;;;;;;5.35;2.80;;;9.90;99.90;;;;;;5006959;28;20482;-86
2022/07/28 04:38:06;;;;;;;7.35;3.10;;;10.00;99.90;;;;;;5003547;28;20149;-86
2022/07/28 04:40:33;;;;;;;8.68;3.55;;;9.90;99.90;;;;;;4996332;28;20465;-86
2022/07/28 04:42:58;;;;;;;6.07;3.00;;;9.90;99.90;;;;;;5023434;28;20045;-86
2022/07/28 04:45:24;;;;;;;5.28;2.97;;;9.90;99.90;;;;;;5008809;28;20630;-86
2022/07/28 04:47:50;;;;;;;6.28;2.70;;;10.00;99.90;;;;;;4999974;28;20094;-85
2022/07/28 04:50:18;;;;;;;6.78;3.05;;;10.00;99.90;;;;;;5003138;28;20095;-88
2022/07/28 04:52:48;;;;;;;6.45;3.00;;;10.00;99.90;;;;;;5023863;28;20053;-88
2022/07/28 04:55:13;;;;;;;7.10;3.10;;;10.00;99.90;;;;;;5010588;28;20046;-87
2022/07/28 04:57:39;;;;;;;6.38;3.10;;;9.90;99.90;;;;;;5002637;28;20401;-85
2022/07/28 05:00:13;;;;;;;6.47;2.80;;;9.90;99.90;;;;;;5030356;28;20489;-85
2022/07/28 05:02:43;;;;;;;5.47;2.75;;;10.00;99.90;;;;;;4991685;28;20049;-85
2022/07/28 05:05:10;;;;;;;5.55;2.97;;;10.00;99.90;;;;;;5027936;28;20378;-85
2022/07/28 05:07:37;;;;;;;6.03;3.30;;;10.20;99.90;;;;;;5003920;28;20136;-87
2022/07/28 05:10:05;;;;;;;7.10;3.33;;;10.30;99.90;;;;;;5012278;28;20109;-86
2022/07/28 05:12:30;;;;;;;6.97;3.22;;;10.40;99.90;;;;;;5009937;28;20060;-85
2022/07/28 05:14:56;;;;;;;5.78;2.95;;;10.60;99.90;;;;;;5045070;28;20037;-86
2022/07/28 05:17:21;;;;;;;6.45;2.90;;;10.80;99.90;;;;;;5032052;28;20042;-86
2022/07/28 05:19:47;;;;;;;7.20;2.90;;;11.00;99.90;;;;;;5003033;28;20395;-90
2022/07/28 05:22:13;;;;;;;6.43;2.90;;;11.10;99.90;;;;;;4996344;28;20840;-89
2022/07/28 05:24:38;;;;;;;6.10;2.88;;;11.20;99.90;;;;;;5010456;28;20041;-90
2022/07/28 05:27:04;;;;;;;7.70;3.03;;;11.50;99.90;;;;;;5006363;28;20529;-90
2022/07/28 05:29:29;;;;;;;5.50;2.78;;;11.50;99.90;;;;;;5005466;28;20051;-90
2022/07/28 05:31:55;;;;;;;5.63;3.00;;;11.60;99.90;;;;;;4990627;28;20034;-91
2022/07/28 05:34:21;;;;;;;5.75;2.65;;;11.70;99.90;;;;;;4997647;28;20056;-91
2022/07/28 05:36:46;;;;;;;6.68;3.00;;;11.80;99.90;;;;;;5034966;28;20040;-90
2022/07/28 05:39:12;;;;;;;6.00;3.00;;;12.00;99.90;;;;;;4992031;28;20107;-91
2022/07/28 05:41:37;;;;;;;6.57;3.10;;;12.00;99.90;;;;;;4991523;28;20095;-90
2022/07/28 05:44:03;;;;;;;6.00;2.60;;;12.10;99.90;;;;;;5027824;28;20064;-91
2022/07/28 05:46:29;;;;;;;6.72;2.83;;;12.20;99.90;;;;;;5008146;28;20041;-89
2022/07/28 05:48:54;;;;;;;7.00;2.85;;;12.40;99.90;;;;;;4994615;28;20045;-90
2022/07/28 05:51:20;;;;;;;5.32;2.60;;;12.60;99.90;;;;;;4989947;28;20402;-89
2022/07/28 05:53:45;;;;;;;6.63;2.75;;;12.70;99.90;;;;;;5037389;28;20128;-91
2022/07/28 05:56:11;;;;;;;5.30;2.35;;;12.80;99.90;;;;;;4985637;28;20041;-90
2022/07/28 05:58:37;;;;;;;7.43;2.50;;;13.00;99.90;;;;;;5024334;28;20049;-92
2022/07/28 06:01:03;;;;;;;6.97;2.55;;;13.10;99.90;;;;;;5015793;28;20040;-89
2022/07/28 06:03:31;;;;;;;7.35;2.65;;;13.20;99.90;;;;;;5004984;28;20049;-92
2022/07/28 06:05:56;;;;;;;6.20;2.30;;;13.30;99.90;;;;;;5006325;28;20030;-92
2022/07/28 06:08:25;;;;;;;6.28;2.83;;;13.50;99.90;;;;;;4993686;28;20159;-92
2022/07/28 06:11:10;;;;;;;6.07;2.90;;;13.50;99.90;;;;;;5004312;28;20101;-93
2022/07/28 06:13:37;;;;;;;7.43;2.65;;;13.70;99.90;;;;;;5007273;28;20060;-89
2022/07/28 06:16:04;;;;;;;6.68;2.70;;;13.90;99.90;;;;;;5016006;28;20144;-92
2022/07/28 06:18:30;;;;;;;6.97;2.42;;;14.10;99.90;;;;;;5014410;28;20390;-91
2022/07/28 06:20:56;;;;;;;6.03;2.20;;;14.30;99.90;;;;;;5012965;28;20044;-91
2022/07/28 06:23:23;;;;;;;5.68;1.83;;;14.40;99.90;;;;;;5015209;28;20073;-95
2022/07/28 06:25:52;;;;;;;5.28;2.03;;;14.60;99.90;;;;;;5004662;28;20056;-96
2022/07/28 06:28:19;;;;;;;6.53;1.80;;;14.80;99.90;;;;;;5033616;28;20049;-96
2022/07/28 06:30:48;;;;;;;5.75;1.90;;;14.90;99.90;;;;;;4992494;28;20041;-92
2022/07/28 06:33:15;;;;;;;6.72;2.20;;;15.20;99.90;;;;;;5009980;28;20045;-89
2022/07/28 06:35:41;;;;;;;5.32;1.90;;;15.40;99.90;;;;;;5013036;28;20053;-90
2022/07/28 06:38:07;;;;;;;6.32;2.00;;;15.50;99.90;;;;;;5012768;28;20072;-91
2022/07/28 06:40:33;;;;;;;5.30;1.80;;;15.70;99.90;;;;;;5016622;28;20072;-92
2022/07/28 06:42:59;;;;;;;5.65;1.40;;;15.80;99.90;;;;;;5008493;28;20467;-91
2022/07/28 06:45:24;;;;;;;7.30;1.60;;;15.90;99.90;;;;;;5017378;28;20045;-92
2022/07/28 06:47:51;;;;;;;4.97;1.60;;;16.00;99.90;;;;;;5011054;28;20065;-91
2022/07/28 06:50:17;;;;;;;5.50;1.80;;;16.00;99.90;;;;;;4999234;28;20125;-92
2022/07/28 06:52:42;;;;;;;4.85;1.95;;;16.10;99.90;;;;;;5001411;28;20718;-93
2022/07/28 06:55:08;;;;;;;6.07;1.80;;;16.10;99.90;;;;;;5017150;28;20091;-89
2022/07/28 06:57:34;;;;;;;5.97;1.35;;;16.10;99.90;;;;;;5016869;28;20041;-90
2022/07/28 07:00:02;;;;;;;4.10;1.38;;;16.20;99.90;;;;;;5037572;28;20447;-91
2022/07/28 07:02:27;;;;;;;6.05;1.60;;;16.30;99.90;;;;;;5031711;28;20419;-93
2022/07/28 07:04:53;;;;;;;3.65;1.13;;;16.40;99.90;;;;;;5046572;28;20179;-91
2022/07/28 07:07:19;;;;;;;5.35;1.23;;;16.40;99.90;;;;;;5045389;28;20036;-89
2022/07/28 07:09:44;;;;;;;4.97;1.40;;;16.50;99.90;;;;;;5012537;28;20025;-90
2022/07/28 07:12:10;;;;;;;4.53;1.30;;;16.50;99.90;;;;;;5017640;28;20080;-88
2022/07/28 07:14:36;;;;;;;6.22;1.48;;;16.60;99.90;;;;;;5040948;28;20040;-91
2022/07/28 07:17:01;;;;;;;6.95;1.50;;;16.60;99.90;;;;;;5010483;28;20049;-92
2022/07/28 07:19:27;;;;;;;3.88;1.20;;;16.60;99.90;;;;;;4996686;28;20049;-92
2022/07/28 07:21:52;;;;;;;5.18;1.23;;;16.60;99.90;;;;;;5016523;28;20490;-92
2022/07/28 07:24:18;;;;;;;6.25;1.40;;;16.60;99.90;;;;;;5038412;28;20156;-93
2022/07/28 07:26:44;;;;;;;4.55;1.35;;;16.60;99.90;;;;;;4996646;28;20454;-91
2022/07/28 07:29:10;;;;;;;4.63;1.20;;;16.70;99.90;;;;;;4997230;28;20054;-90
2022/07/28 07:31:37;;;;;;;3.42;1.17;;;16.80;99.90;;;;;;4992674;28;20038;-90
2022/07/28 07:34:03;;;;;;;3.70;1.23;;;16.90;99.90;;;;;;4981845;28;20050;-91
2022/07/28 07:36:29;;;;;;;5.68;1.30;;;17.00;99.90;;;;;;4984513;28;20038;-89
2022/07/28 07:38:55;;;;;;;5.15;1.40;;;17.10;99.90;;;;;;4992185;28;20060;-90
2022/07/28 07:41:21;;;;;;;4.78;1.30;;;17.20;99.90;;;;;;4997091;28;20096;-89
2022/07/28 07:43:46;;;;;;;5.72;1.30;;;17.20;99.90;;;;;;5018856;28;20045;-89
2022/07/28 07:46:12;;;;;;;3.47;1.10;;;17.30;99.90;;;;;;5013189;28;20092;-88
2022/07/28 07:48:38;;;;;;;5.72;1.20;;;17.40;99.90;;;;;;5028528;28;21680;-88
2022/07/28 07:51:04;;;;;;;4.30;1.10;;;17.50;99.90;;;;;;5014726;28;20038;-88
2022/07/28 07:53:30;;;;;;;3.28;1.10;;;17.50;99.90;;;;;;4979658;28;20045;-91
2022/07/28 07:55:55;;;;;;;5.57;1.30;;;17.60;99.90;;;;;;4975018;28;20509;-90
2022/07/28 07:58:21;;;;;;;4.35;1.20;;;17.60;99.90;;;;;;4993299;28;20073;-94
2022/07/28 08:00:47;;;;;;;4.15;1.30;;;17.70;99.90;;;;;;4989950;28;20052;-89
2022/07/28 08:03:14;;;;;;;2.53;1.10;;;17.70;99.90;;;;;;4977190;28;20049;-89
2022/07/28 08:05:40;;;;;;;4.68;1.02;;;17.70;99.90;;;;;;5023754;28;20488;-90
2022/07/28 08:08:06;;;;;;;4.88;1.13;;;17.80;99.90;;;;;;4980698;28;20149;-89
2022/07/28 08:10:33;;;;;;;4.22;1.15;;;17.90;99.90;;;;;;4985480;28;20046;-91
2022/07/28 08:12:59;;;;;;;4.57;1.23;;;18.00;99.90;;;;;;4993861;28;20129;-93
2022/07/28 08:15:24;;;;;;;3.30;1.10;;;18.20;99.90;;;;;;5008327;28;20112;-87
2022/07/28 08:17:50;;;;;;;4.63;1.30;;;18.10;99.90;;;;;;5021319;28;20045;-90
2022/07/28 08:20:15;;;;;;;4.55;1.00;;;18.10;99.90;;;;;;5027713;28;20045;-90
2022/07/28 08:22:53;;;;;;;6.43;1.30;;;18.20;99.90;;;;;;5027938;28;20082;-90
2022/07/28 08:25:20;;;;;;;4.45;1.10;;;18.30;99.90;;;;;;5012471;28;20072;-91
2022/07/28 08:27:46;;;;;;;5.22;1.40;;;18.30;99.90;;;;;;5011603;28;20059;-93
2022/07/28 08:30:14;;;;;;;4.97;1.20;;;18.30;99.90;;;;;;5025283;28;20044;-90
2022/07/28 08:32:40;;;;;;;5.10;1.60;;;18.50;99.90;;;;;;5029380;28;20076;-90
2022/07/28 08:35:06;;;;;;;4.82;1.10;;;18.60;99.90;;;;;;4999542;28;20037;-92
2022/07/28 08:37:32;;;;;;;3.45;1.10;;;18.70;99.90;;;;;;5035741;28;20098;-90
2022/07/28 08:39:58;;;;;;;6.00;1.50;;;18.70;99.90;;;;;;5029267;28;20044;-91
2022/07/28 08:42:44;;;;;;;2.85;0.93;;;18.80;99.90;;;;;;5026373;28;20149;-92
2022/07/28 08:45:11;;;;;;;3.55;1.00;;;18.80;99.90;;;;;;5018073;28;20076;-92
2022/07/28 08:47:36;;;;;;;4.25;1.10;;;18.90;99.90;;;;;;5044181;28;20124;-89
2022/07/28 08:50:03;;;;;;;3.38;1.30;;;19.00;99.90;;;;;;5006693;28;20503;-92
2022/07/28 08:52:32;;;;;;;4.47;1.10;;;19.00;99.90;;;;;;5048372;28;20048;-90
2022/07/28 08:55:03;;;;;;;4.43;1.15;;;18.90;99.90;;;;;;5022212;28;20072;-91
2022/07/28 08:57:40;;;;;;;5.80;0.93;;;18.90;99.90;;;;;;5012686;28;20033;-89
2022/07/28 09:00:08;;;;;;;5.78;1.30;;;18.80;99.90;;;;;;5015018;28;20106;-87
2022/07/28 09:02:39;;;;;;;5.43;1.17;;;18.90;99.90;;;;;;5035276;28;20094;-92
2022/07/28 09:05:05;;;;;;;;;;;18.90;99.90;;;;;;5019291;28;20184;-91
2022/07/28 09:07:31;;;;;;;3.80;1.00;;;18.90;99.90;;;;;;5013194;28;20401;-89
2022/07/28 09:09:57;;;;;;;3.38;1.10;;;18.90;99.90;;;;;;5025816;28;20049;-87
2022/07/28 09:12:22;;;;;;;5.25;1.40;;;18.90;99.90;;;;;;5029038;28;20072;-90
2022/07/28 09:14:48;;;;;;;4.63;1.20;;;18.90;99.90;;;;;;5010904;28;20033;-91
2022/07/28 09:17:14;;;;;;;4.55;1.20;;;18.80;99.90;;;;;;5019220;28;20041;-90
2022/07/28 09:19:39;;;;;;;4.85;1.30;;;18.90;99.90;;;;;;5047007;28;20049;-95
2022/07/28 09:22:06;;;;;;;3.50;1.10;;;18.90;99.90;;;;;;5002886;28;20044;-89
2022/07/28 09:24:41;;;;;;;4.78;1.05;;;18.80;99.90;;;;;;5046723;28;20139;-93
2022/07/28 09:27:12;;;;;;;6.00;1.30;;;18.80;99.90;;;;;;4998241;28;20045;-92
2022/07/28 09:29:40;;;;;;;5.07;1.50;;;18.80;99.90;;;;;;5015829;28;20037;-91
2022/07/28 09:32:07;;;;;;;3.72;1.50;;;18.70;99.90;;;;;;5004208;28;20034;-89
2022/07/28 09:34:42;;;;;;;5.10;1.23;;;18.70;99.90;;;;;;4991776;28;20049;-92
2022/07/28 09:37:18;;;;;;;4.65;1.25;;;18.70;99.90;;;;;;5021603;28;20045;-92
2022/07/28 09:39:45;;;;;;;5.22;1.42;;;18.70;99.90;;;;;;5042924;28;20134;-89
2022/07/28 09:42:14;;;;;;;6.43;1.60;;;18.70;99.90;;;;;;5017082;28;20061;-92
2022/07/28 09:44:40;;;;;;;3.85;1.30;;;18.80;99.90;;;;;;5018835;28;20061;-91
2022/07/28 09:47:22;;;;;;;4.45;1.30;;;18.90;99.90;;;;;;5025988;28;20124;-91
2022/07/28 09:49:48;;;;;;;5.40;1.52;;;19.00;99.90;;;;;;5004002;28;20041;-93
2022/07/28 09:52:27;;;;;;;6.28;1.70;;;19.10;99.90;;;;;;5016532;28;20103;-89
2022/07/28 09:55:05;;;;;;;5.88;1.40;;;19.10;99.90;;;;;;5008419;28;20526;-92
2022/07/28 09:57:33;;;;;;;4.20;1.17;;;19.20;99.90;;;;;;5021789;28;20049;-91
2022/07/28 09:59:59;;;;;;;4.82;1.10;;;19.30;99.90;;;;;;5008674;28;20050;-93
2022/07/28 10:02:28;;;;;;;5.25;1.58;;;19.40;99.90;;;;;;5035600;28;20547;-91
2022/07/28 10:04:54;;;;;;;4.47;1.45;;;19.40;99.90;;;;;;5017533;28;20044;-91
2022/07/28 10:07:20;;;;;;;6.07;1.40;;;19.50;99.90;;;;;;4998517;28;20044;-88
2022/07/28 10:10:03;;;;;;;3.05;1.10;;;19.50;99.90;;;;;;5014248;28;20037;-92
2022/07/28 10:12:31;;;;;;;4.13;1.20;;;19.60;99.90;;;;;;5016084;28;20049;-89
2022/07/28 10:17:59;;;;;;;4.93;1.10;;;19.60;99.90;;;;;;5021781;28;20088;-95
2022/07/28 10:20:27;;;;;;;2.92;1.10;;;19.60;99.90;;;;;;5004709;28;20042;-96
2022/07/28 10:23:00;;;;;;;2.75;1.00;;;19.70;99.90;;;;;;4995950;28;20082;-92
2022/07/28 10:25:28;;;;;;;5.18;1.10;;;19.70;99.90;;;;;;5014596;28;20068;-88
2022/07/28 10:27:58;;;;;;;5.10;1.33;;;19.60;99.90;;;;;;5000801;28;20049;-91
2022/07/28 10:30:34;;;;;;;5.38;1.33;;;19.60;99.90;;;;;;5018142;28;20048;-91
2022/07/28 10:33:04;;;;;;;2.75;1.00;;;19.70;99.90;;;;;;5032430;28;20045;-92
2022/07/28 10:35:33;;;;;;;4.53;1.20;;;19.70;99.90;;;;;;5013248;28;20171;-91
2022/07/28 10:38:02;;;;;;;4.93;1.10;;;19.70;99.90;;;;;;4997393;28;20049;-92
2022/07/28 10:40:37;;;;;;;4.28;1.17;;;19.70;99.90;;;;;;5011896;28;20128;-90
2022/07/28 10:43:04;;;;;;;3.63;1.08;;;19.80;98.50;;;;;;5040610;28;20059;-91
2022/07/28 10:45:30;;;;;;;3.28;1.02;;;19.90;99.90;;;;;;4994081;28;20041;-90
2022/07/28 10:47:57;;;;;;;3.25;1.23;;;20.00;99.80;;;;;;5012493;28;20045;-93
2022/07/28 10:50:25;;;;;;;4.05;1.00;;;20.00;98.30;;;;;;4998376;28;20130;-93
2022/07/28 10:52:52;;;;;;;2.25;1.08;;;20.00;98.60;;;;;;5008415;28;20042;-94
2022/07/28 10:55:49;;;;;;;4.97;1.10;;;20.10;98.80;;;;;;4996502;28;20109;-90
2022/07/28 10:58:35;;;;;;;3.63;1.08;;;20.10;98.10;;;;;;5003944;28;20049;-92
2022/07/28 11:01:01;;;;;;;4.93;1.20;;;20.20;98.10;;;;;;5012640;28;20057;-91
2022/07/28 11:03:51;;;;;;;4.72;1.38;;;20.10;98.50;;;;;;5015903;28;20557;-95
2022/07/28 11:06:25;;;;;;;5.22;1.20;;;20.20;98.50;;;;;;5008942;28;20337;-93
2022/07/28 11:08:54;;;;;;;2.28;0.98;;;20.30;96.60;;;;;;5001915;28;20103;-96
2022/07/28 11:11:58;;;;;;;5.32;1.30;;;20.40;96.90;;;;;;5013585;28;20065;-92
2022/07/28 11:14:28;;;;;;;3.53;1.00;;;20.40;95.50;;;;;;4952651;28;21026;-95
2022/07/28 11:16:59;;;;;;;3.75;1.30;;;20.60;96.40;;;;;;4944458;28;20047;-94
2022/07/28 11:19:29;;;;;;;4.22;1.15;;;20.60;97.20;;;;;;4939412;28;20129;-96
2022/07/28 11:22:13;;;;;;;4.28;1.17;;;20.60;96.40;;;;;;4938026;28;20421;-93
2022/07/28 11:24:57;;;;;;;2.83;0.98;;;20.50;95.60;;;;;;4954314;28;20043;-96
2022/07/28 11:27:58;;;;;;;4.93;1.13;;;20.30;95.20;;;;;;4944548;28;20042;-94
2022/07/28 11:30:24;;;;;;;4.45;1.30;;;20.40;96.20;;;;;;4973810;28;20051;-95
2022/07/28 11:32:49;;;;;;;3.20;1.10;;;20.40;97.30;;;;;;4969127;28;20595;-91
2022/07/28 11:35:18;;;;;;;4.97;1.25;;;20.60;97.30;;;;;;4966230;28;20086;-93
2022/07/28 11:38:02;;;;;;;4.05;1.20;;;20.60;96.70;;;;;;4976354;28;20049;-93
2022/07/28 11:40:31;;;;;;;3.30;1.13;;;20.60;95.10;;;;;;4941270;28;20042;-92
2022/07/28 11:43:21;;;;;;;2.85;1.15;;;20.60;96.50;;;;;;4959738;28;20130;-90
2022/07/28 11:46:10;;;;;;;5.10;1.17;;;20.60;96.70;;;;;;5014257;28;20104;-90
2022/07/28 11:48:38;;;;;;;3.40;1.20;;;20.70;96.00;;;;;;5018733;28;20054;-94
2022/07/28 11:51:03;;;;;;;5.72;1.50;;;20.80;97.00;;;;;;5009455;28;20055;-94
2022/07/28 11:53:47;;;;;;;4.13;1.10;;;20.90;96.70;;;;;;4998766;28;20470;-93
2022/07/28 11:56:14;;;;;;;4.13;1.17;;;21.10;97.60;;;;;;5021713;28;20037;-95
2022/07/28 11:58:40;;;;;;;3.78;1.20;;;21.10;97.00;;;;;;5039444;28;20461;-95
2022/07/28 12:01:19;;;;;;;2.58;1.05;;;21.10;96.20;;;;;;5032169;28;20052;-96
2022/07/28 12:03:52;;;;;;;5.40;1.25;;;21.20;95.50;;;;;;5015092;28;20056;-95
2022/07/28 12:06:19;;;;;;;3.42;1.10;;;21.20;94.60;;;;;;4986840;28;20141;-92
2022/07/28 12:08:50;;;;;;;6.03;1.25;;;20.90;93.80;;;;;;4996255;28;20402;-92
2022/07/28 12:11:16;;;;;;;4.63;1.25;;;20.80;94.20;;;;;;4997769;28;20048;-92
2022/07/28 12:13:42;;;;;;;3.67;1.30;;;20.70;93.60;;;;;;5021335;28;20049;-94
2022/07/28 12:16:08;;;;;;;3.70;1.10;;;20.60;93.50;;;;;;5002247;28;20080;-92
2022/07/28 12:18:33;;;;;;;4.63;1.17;;;20.50;94.00;;;;;;5035736;28;20041;-93
2022/07/28 12:20:59;;;;;;;3.08;1.00;;;20.50;94.40;;;;;;4992257;28;20414;-93
2022/07/28 12:23:30;;;;;;;3.50;1.10;;;20.30;93.30;;;;;;5020013;28;20045;-94
2022/07/28 12:25:55;;;;;;;;;;;20.40;93.40;;;;;;5037898;28;20060;-96
2022/07/28 12:28:22;;;;;;;4.60;1.30;;;20.40;93.20;;;;;;5042447;28;19920;-95
2022/07/28 12:30:50;;;;;;;4.97;1.30;;;20.50;94.00;;;;;;5047713;28;20032;-91
2022/07/28 12:33:21;;;;;;;4.53;1.48;;;20.40;93.50;;;;;;5047228;28;20049;-91
2022/07/28 12:35:50;;;;;;;5.00;1.45;;;20.40;93.60;;;;;;5009072;28;20056;-90
2022/07/28 12:38:16;;;;;;;4.43;1.20;;;20.40;93.70;;;;;;4999384;28;20043;-88
2022/07/28 12:40:42;;;;;;;4.97;1.30;;;20.50;94.00;;;;;;5015204;28;20044;-92
2022/07/28 12:43:08;;;;;;;6.25;1.42;;;20.70;94.00;;;;;;5009966;28;20042;-92
2022/07/28 12:45:46;;;;;;;6.72;1.30;;;20.80;94.00;;;;;;5024304;28;20132;-92
2022/07/28 12:48:12;;;;;;;3.28;1.10;;;20.70;94.10;;;;;;4989654;28;20081;-95
2022/07/28 12:50:39;;;;;;;3.05;1.10;;;20.80;93.50;;;;;;4994596;28;20042;-92
2022/07/28 12:53:12;;;;;;;4.82;1.20;;;20.70;93.40;;;;;;5008796;28;20045;-96
2022/07/28 12:55:42;;;;;;;4.53;1.17;;;20.70;93.80;;;;;;4993478;28;20097;-96
2022/07/28 12:58:22;;;;;;;7.22;1.67;;;20.70;93.50;;;;;;5008323;28;20050;-95
2022/07/28 13:00:49;;;;;;;5.53;1.20;;;20.70;93.80;;;;;;5040973;28;20017;-94